sensor_id;sensor_type;location;lat;lon;timestamp;P1;durP1;ratioP1;P2;durP2;ratioP2
57329;SDS011;43163;51.032;18.280;2023-04-30T00:07:08;32.60;;;22.10;;
57329;SDS011;43163;51.032;18.280;2023-04-30T00:16:57;38.40;;;25.00;;
57329;SDS011;43163;51.032;18.280;2023-04-30T00:26:46;26.30;;;18.40;;
57329;SDS011;43163;51.032;18.280;2023-04-30T00:36:34;21.00;;;16.60;;
57329;SDS011;43163;51.032;18.280;2023-04-30T00:46:22;41.00;;;14.90;;
57329;SDS011;43163;51.032;18.280;2023-04-30T00:56:11;21.30;;;14.30;;
57329;SDS011;43163;51.032;18.280;2023-04-30T01:06:01;30.00;;;16.10;;
57329;SDS011;43163;51.032;18.280;2023-04-30T01:16:06;24.40;;;15.60;;
57329;SDS011;43163;51.032;18.280;2023-04-30T01:26:37;24.90;;;12.20;;
57329;SDS011;43163;51.032;18.280;2023-04-30T01:47:29;16.60;;;12.30;;
57329;SDS011;43163;51.032;18.280;2023-04-30T01:57:36;12.20;;;4.90;;
57329;SDS011;43163;51.032;18.280;2023-04-30T02:07:35;19.90;;;13.20;;
57329;SDS011;43163;51.032;18.280;2023-04-30T02:17:28;20.80;;;14.10;;
57329;SDS011;43163;51.032;18.280;2023-04-30T02:27:23;17.60;;;13.30;;
57329;SDS011;43163;51.032;18.280;2023-04-30T02:37:12;18.80;;;13.30;;
57329;SDS011;43163;51.032;18.280;2023-04-30T02:47:01;24.30;;;13.90;;
57329;SDS011;43163;51.032;18.280;2023-04-30T02:56:49;20.90;;;14.70;;
57329;SDS011;43163;51.032;18.280;2023-04-30T03:06:38;20.20;;;13.30;;
57329;SDS011;43163;51.032;18.280;2023-04-30T03:16:31;18.40;;;12.90;;
57329;SDS011;43163;51.032;18.280;2023-04-30T03:26:19;20.70;;;11.70;;
57329;SDS011;43163;51.032;18.280;2023-04-30T03:36:07;15.80;;;11.90;;
57329;SDS011;43163;51.032;18.280;2023-04-30T03:45:57;28.60;;;12.90;;
57329;SDS011;43163;51.032;18.280;2023-04-30T03:55:46;24.90;;;14.20;;
57329;SDS011;43163;51.032;18.280;2023-04-30T04:05:38;18.80;;;12.20;;
57329;SDS011;43163;51.032;18.280;2023-04-30T04:15:27;17.80;;;11.60;;
57329;SDS011;43163;51.032;18.280;2023-04-30T04:25:15;15.70;;;10.10;;
57329;SDS011;43163;51.032;18.280;2023-04-30T04:35:15;31.10;;;14.30;;
57329;SDS011;43163;51.032;18.280;2023-04-30T05:26:45;19.50;;;11.60;;
57329;SDS011;43163;51.032;18.280;2023-04-30T05:36:34;17.00;;;10.10;;
57329;SDS011;43163;51.032;18.280;2023-04-30T05:46:22;8.40;;;6.40;;
57329;SDS011;43163;51.032;18.280;2023-04-30T05:56:11;22.50;;;11.80;;
57329;SDS011;43163;51.032;18.280;2023-04-30T06:06:04;12.60;;;9.10;;
57329;SDS011;43163;51.032;18.280;2023-04-30T06:15:54;14.00;;;10.30;;
57329;SDS011;43163;51.032;18.280;2023-04-30T06:25:44;10.90;;;8.00;;
57329;SDS011;43163;51.032;18.280;2023-04-30T06:35:33;13.20;;;8.50;;
57329;SDS011;43163;51.032;18.280;2023-04-30T06:45:23;18.20;;;9.60;;
57329;SDS011;43163;51.032;18.280;2023-04-30T06:55:14;12.20;;;8.60;;
57329;SDS011;43163;51.032;18.280;2023-04-30T07:05:04;13.30;;;8.10;;
57329;SDS011;43163;51.032;18.280;2023-04-30T07:14:53;17.00;;;6.20;;
57329;SDS011;43163;51.032;18.280;2023-04-30T07:24:43;9.10;;;6.00;;
57329;SDS011;43163;51.032;18.280;2023-04-30T07:34:32;8.80;;;5.30;;
57329;SDS011;43163;51.032;18.280;2023-04-30T07:44:21;10.40;;;5.10;;
57329;SDS011;43163;51.032;18.280;2023-04-30T07:54:10;10.50;;;4.40;;
57329;SDS011;43163;51.032;18.280;2023-04-30T08:03:58;10.20;;;5.20;;
57329;SDS011;43163;51.032;18.280;2023-04-30T08:21:12;5.50;;;4.60;;
57329;SDS011;43163;51.032;18.280;2023-04-30T08:31:01;7.10;;;5.50;;
57329;SDS011;43163;51.032;18.280;2023-04-30T08:40:55;7.70;;;4.30;;
57329;SDS011;43163;51.032;18.280;2023-04-30T08:51:02;5.30;;;4.40;;
57329;SDS011;43163;51.032;18.280;2023-04-30T09:00:52;13.30;;;6.10;;
57329;SDS011;43163;51.032;18.280;2023-04-30T09:11:27;8.20;;;4.90;;
57329;SDS011;43163;51.032;18.280;2023-04-30T09:21:31;4.60;;;4.20;;
57329;SDS011;43163;51.032;18.280;2023-04-30T09:31:26;14.20;;;3.80;;
57329;SDS011;43163;51.032;18.280;2023-04-30T09:41:22;5.30;;;4.20;;
57329;SDS011;43163;51.032;18.280;2023-04-30T09:51:26;6.70;;;4.80;;
57329;SDS011;43163;51.032;18.280;2023-04-30T10:01:22;6.20;;;3.80;;
57329;SDS011;43163;51.032;18.280;2023-04-30T10:11:20;8.00;;;4.10;;
57329;SDS011;43163;51.032;18.280;2023-04-30T10:21:32;12.00;;;2.90;;
57329;SDS011;43163;51.032;18.280;2023-04-30T10:31:22;7.10;;;3.20;;
57329;SDS011;43163;51.032;18.280;2023-04-30T11:30:11;6.80;;;2.80;;
57329;SDS011;43163;51.032;18.280;2023-04-30T11:40:05;8.10;;;1.80;;
57329;SDS011;43163;51.032;18.280;2023-04-30T11:50:12;6.60;;;2.40;;
57329;SDS011;43163;51.032;18.280;2023-04-30T12:00:11;4.20;;;2.10;;
57329;SDS011;43163;51.032;18.280;2023-04-30T12:10:15;2.20;;;1.60;;
57329;SDS011;43163;51.032;18.280;2023-04-30T12:20:11;7.10;;;2.60;;
57329;SDS011;43163;51.032;18.280;2023-04-30T12:30:08;3.40;;;2.30;;
57329;SDS011;43163;51.032;18.280;2023-04-30T12:39:57;4.20;;;1.60;;
57329;SDS011;43163;51.032;18.280;2023-04-30T12:49:56;2.10;;;1.90;;
57329;SDS011;43163;51.032;18.280;2023-04-30T13:09:46;2.20;;;1.10;;
57329;SDS011;43163;51.032;18.280;2023-04-30T13:19:40;5.30;;;1.60;;
57329;SDS011;43163;51.032;18.280;2023-04-30T13:29:30;6.30;;;1.30;;
57329;SDS011;43163;51.032;18.280;2023-04-30T13:39:21;3.60;;;1.90;;
57329;SDS011;43163;51.032;18.280;2023-04-30T13:49:10;3.40;;;1.50;;
57329;SDS011;43163;51.032;18.280;2023-04-30T13:58:59;7.00;;;2.00;;
57329;SDS011;43163;51.032;18.280;2023-04-30T14:08:48;2.40;;;2.20;;
57329;SDS011;43163;51.032;18.280;2023-04-30T14:18:37;4.60;;;2.20;;
57329;SDS011;43163;51.032;18.280;2023-04-30T14:28:27;4.00;;;1.70;;
57329;SDS011;43163;51.032;18.280;2023-04-30T14:38:16;3.10;;;1.70;;
57329;SDS011;43163;51.032;18.280;2023-04-30T14:48:06;5.80;;;2.10;;
57329;SDS011;43163;51.032;18.280;2023-04-30T14:57:57;3.20;;;2.00;;
57329;SDS011;43163;51.032;18.280;2023-04-30T15:07:47;14.40;;;1.40;;
57329;SDS011;43163;51.032;18.280;2023-04-30T15:17:36;6.40;;;1.70;;
57329;SDS011;43163;51.032;18.280;2023-04-30T15:27:27;3.30;;;1.70;;
57329;SDS011;43163;51.032;18.280;2023-04-30T15:37:17;2.90;;;1.60;;
57329;SDS011;43163;51.032;18.280;2023-04-30T15:47:06;4.60;;;2.00;;
57329;SDS011;43163;51.032;18.280;2023-04-30T15:56:55;0.70;;;0.70;;
57329;SDS011;43163;51.032;18.280;2023-04-30T16:06:44;2.20;;;1.80;;
57329;SDS011;43163;51.032;18.280;2023-04-30T16:16:45;8.90;;;1.80;;
57329;SDS011;43163;51.032;18.280;2023-04-30T16:26:35;6.90;;;2.40;;
57329;SDS011;43163;51.032;18.280;2023-04-30T16:36:25;8.40;;;5.40;;
57329;SDS011;43163;51.032;18.280;2023-04-30T17:27:25;6.70;;;2.40;;
57329;SDS011;43163;51.032;18.280;2023-04-30T17:37:19;4.80;;;2.00;;
57329;SDS011;43163;51.032;18.280;2023-04-30T17:47:09;3.70;;;2.80;;
57329;SDS011;43163;51.032;18.280;2023-04-30T17:56:59;10.40;;;3.90;;
57329;SDS011;43163;51.032;18.280;2023-04-30T18:06:54;5.90;;;4.80;;
57329;SDS011;43163;51.032;18.280;2023-04-30T18:16:45;9.10;;;3.10;;
57329;SDS011;43163;51.032;18.280;2023-04-30T18:26:38;4.40;;;2.30;;
57329;SDS011;43163;51.032;18.280;2023-04-30T18:36:30;10.70;;;5.00;;
57329;SDS011;43163;51.032;18.280;2023-04-30T18:46:19;13.50;;;4.90;;
57329;SDS011;43163;51.032;18.280;2023-04-30T18:56:11;14.00;;;4.40;;
57329;SDS011;43163;51.032;18.280;2023-04-30T19:06:03;3.50;;;2.20;;
57329;SDS011;43163;51.032;18.280;2023-04-30T19:15:53;2.20;;;2.00;;
57329;SDS011;43163;51.032;18.280;2023-04-30T19:26:00;12.80;;;3.10;;
57329;SDS011;43163;51.032;18.280;2023-04-30T19:35:53;5.80;;;2.90;;
57329;SDS011;43163;51.032;18.280;2023-04-30T19:45:55;1.70;;;1.60;;
57329;SDS011;43163;51.032;18.280;2023-04-30T19:55:49;6.90;;;5.00;;
57329;SDS011;43163;51.032;18.280;2023-04-30T20:05:40;7.90;;;3.70;;
57329;SDS011;43163;51.032;18.280;2023-04-30T20:15:31;5.90;;;4.50;;
57329;SDS011;43163;51.032;18.280;2023-04-30T20:25:22;11.10;;;4.40;;
57329;SDS011;43163;51.032;18.280;2023-04-30T20:35:18;17.60;;;4.30;;
57329;SDS011;43163;51.032;18.280;2023-04-30T20:45:10;6.70;;;4.50;;
57329;SDS011;43163;51.032;18.280;2023-04-30T20:55:01;13.20;;;2.90;;
57329;SDS011;43163;51.032;18.280;2023-04-30T21:04:51;6.50;;;3.80;;
57329;SDS011;43163;51.032;18.280;2023-04-30T21:14:41;1.30;;;1.20;;
57329;SDS011;43163;51.032;18.280;2023-04-30T21:24:32;5.40;;;3.40;;
57329;SDS011;43163;51.032;18.280;2023-04-30T21:41:54;7.20;;;4.40;;
57329;SDS011;43163;51.032;18.280;2023-04-30T21:51:45;7.20;;;3.10;;
57329;SDS011;43163;51.032;18.280;2023-04-30T22:01:42;7.10;;;3.60;;
57329;SDS011;43163;51.032;18.280;2023-04-30T22:11:32;11.10;;;5.50;;
57329;SDS011;43163;51.032;18.280;2023-04-30T22:21:21;11.00;;;6.00;;
57329;SDS011;43163;51.032;18.280;2023-04-30T22:31:10;11.70;;;5.60;;
57329;SDS011;43163;51.032;18.280;2023-04-30T23:27:25;6.30;;;5.50;;
57329;SDS011;43163;51.032;18.280;2023-04-30T23:37:17;8.80;;;5.50;;
57329;SDS011;43163;51.032;18.280;2023-04-30T23:47:07;11.50;;;5.30;;
57329;SDS011;43163;51.032;18.280;2023-04-30T23:56:57;8.50;;;4.90;;
